Time;durP1;ratioP1;P1;durP2;ratioP2;P2;SDS_P1;SDS_P2;PMS_P1;PMS_P2;Temp;Humidity;BMP_temperature;BMP_pressure;BME280_temperature;BME280_humidity;BME280_pressure;Samples;Min_cycle;Max_cycle;Signal;HPM_P1;HPM_P2
2021/04/14 00:01:48;;;;;;;13.90;2.65;;;;;;;0.59;100.00;102850.06;6224934;28;20050;-78
2021/04/14 00:04:49;;;;;;;9.73;3.50;;;;;;;0.59;100.00;102849.16;6227431;28;20057;-79
2021/04/14 00:07:50;;;;;;;5.43;2.17;;;;;;;0.57;100.00;102851.72;6228474;28;20050;-78
2021/04/14 00:10:51;;;;;;;8.15;1.95;;;;;;;0.53;100.00;102838.69;6235265;28;20125;-77
2021/04/14 00:13:52;;;;;;;6.35;1.90;;;;;;;0.53;100.00;102841.28;6251679;28;20073;-78
2021/04/14 00:16:55;;;;;;;11.25;2.30;;;;;;;0.65;100.00;102839.81;6251958;28;20034;-78
2021/04/14 00:19:56;;;;;;;6.78;2.00;;;;;;;0.72;100.00;102838.22;6254036;28;20034;-78
2021/04/14 00:22:57;;;;;;;4.80;2.00;;;;;;;0.67;99.92;102838.13;6253854;28;20044;-77
2021/04/14 00:25:58;;;;;;;10.82;2.35;;;;;;;0.67;99.88;102835.53;6253085;28;20026;-78
2021/04/14 00:28:59;;;;;;;9.25;2.00;;;;;;;0.59;100.00;102831.03;6253452;28;20536;-77
2021/04/14 00:32:00;;;;;;;10.00;2.42;;;;;;;0.62;100.00;102828.53;6248823;28;20054;-78
2021/04/14 00:35:01;;;;;;;9.93;2.88;;;;;;;0.67;100.00;102832.09;6224113;28;20494;-78
2021/04/14 00:38:03;;;;;;;14.75;2.72;;;;;;;0.76;100.00;102832.28;6224021;28;20049;-78
2021/04/14 00:41:08;;;;;;;9.02;2.45;;;;;;;0.76;100.00;102829.69;6224340;28;20049;-78
2021/04/14 00:44:09;;;;;;;7.65;2.10;;;;;;;0.70;100.00;102826.97;6224376;28;20077;-78
2021/04/14 00:47:11;;;;;;;13.50;2.33;;;;;;;0.66;100.00;102826.03;6224637;28;20239;-78
2021/04/14 00:50:17;;;;;;;10.07;2.50;;;;;;;0.63;100.00;102830.28;6224330;28;20050;-78
2021/04/14 00:53:19;;;;;;;5.85;1.85;;;;;;;0.77;100.00;102823.66;6224185;28;20128;-80
2021/04/14 00:56:20;;;;;;;7.68;2.28;;;;;;;0.60;100.00;102822.47;6223880;28;20050;-80
2021/04/14 00:59:21;;;;;;;7.47;2.30;;;;;;;0.60;100.00;102825.06;6223714;28;20058;-78
2021/04/14 01:02:22;;;;;;;6.75;1.88;;;;;;;0.67;100.00;102821.75;6223562;28;20057;-80
2021/04/14 01:05:25;;;;;;;6.30;2.13;;;;;;;0.59;99.73;102819.00;6223182;28;20053;-79
2021/04/14 01:08:26;;;;;;;7.38;2.17;;;;;;;0.48;100.00;102818.75;6223613;28;20046;-80
2021/04/14 01:11:28;;;;;;;10.80;3.15;;;;;;;0.53;100.00;102818.84;6223613;28;20077;-80
2021/04/14 01:14:29;;;;;;;5.25;2.03;;;;;;;0.58;100.00;102826.72;6223540;28;20050;-78
2021/04/14 01:17:31;;;;;;;13.95;2.72;;;;;;;0.63;100.00;102820.78;6224165;28;20057;-79
2021/04/14 01:20:33;;;;;;;13.00;2.58;;;;;;;0.74;100.00;102824.50;6226723;28;20065;-78
2021/04/14 01:23:35;;;;;;;9.13;2.55;;;;;;;0.76;100.00;102821.94;6247406;28;20045;-79
2021/04/14 01:26:36;;;;;;;7.07;2.53;;;;;;;0.76;100.00;102816.75;6224000;28;20046;-78
2021/04/14 01:29:37;;;;;;;5.22;2.20;;;;;;;0.67;100.00;102820.03;6224417;28;20428;-78
2021/04/14 01:32:37;;;;;;;8.60;2.50;;;;;;;0.54;100.00;102823.19;6233953;28;20458;-78
2021/04/14 01:35:39;;;;;;;8.95;2.70;;;;;;;0.48;100.00;102810.13;6248640;28;20527;-78
2021/04/14 01:38:40;;;;;;;9.88;2.78;;;;;;;0.39;100.00;102820.28;6248627;28;20049;-78
2021/04/14 01:41:42;;;;;;;11.73;3.63;;;;;;;0.28;100.00;102812.28;6248142;28;20053;-79
2021/04/14 01:44:43;;;;;;;9.32;2.72;;;;;;;0.33;100.00;102814.97;6247964;28;20056;-79
2021/04/14 01:47:44;;;;;;;7.22;2.42;;;;;;;0.39;100.00;102813.38;6248105;28;20049;-79
2021/04/14 01:50:45;;;;;;;8.82;2.40;;;;;;;0.48;100.00;102818.75;6248608;28;20131;-78
2021/04/14 01:53:47;;;;;;;9.05;2.17;;;;;;;0.47;100.00;102817.03;6247963;28;20053;-78
2021/04/14 01:56:48;;;;;;;5.50;2.35;;;;;;;0.43;100.00;102812.63;6248065;28;20631;-77
2021/04/14 01:59:49;;;;;;;10.27;3.13;;;;;;;0.40;100.00;102816.84;6247632;28;20049;-79
2021/04/14 02:02:50;;;;;;;6.93;2.67;;;;;;;0.44;100.00;102816.06;6247972;28;20053;-78
2021/04/14 02:05:51;;;;;;;10.63;2.95;;;;;;;0.47;100.00;102817.03;6247565;28;20623;-79
2021/04/14 02:08:53;;;;;;;3.92;2.45;;;;;;;0.47;100.00;102813.56;6248013;28;20064;-79
2021/04/14 02:11:54;;;;;;;6.07;2.47;;;;;;;0.41;100.00;102816.91;6247618;28;20053;-78
2021/04/14 02:14:54;;;;;;;6.75;2.50;;;;;;;0.31;100.00;102822.69;6247694;28;20064;-78
2021/04/14 02:17:56;;;;;;;12.05;2.78;;;;;;;0.22;100.00;102819.88;6247961;28;20052;-79
2021/04/14 02:20:57;;;;;;;6.95;2.60;;;;;;;0.17;100.00;102821.50;6247552;28;20504;-79
2021/04/14 02:23:59;;;;;;;10.20;2.92;;;;;;;0.17;100.00;102818.91;6249104;28;20060;-78
2021/04/14 02:27:00;;;;;;;12.15;4.30;;;;;;;0.14;100.00;102818.88;6252578;28;20057;-79
2021/04/14 02:30:01;;;;;;;16.63;3.80;;;;;;;0.11;100.00;102817.06;6252910;28;20049;-78
2021/04/14 02:33:04;;;;;;;11.30;3.17;;;;;;;0.00;100.00;102821.13;6252355;28;20084;-79
2021/04/14 02:36:06;;;;;;;10.95;2.90;;;;;;;-0.06;100.00;102815.78;6252343;28;20049;-79
2021/04/14 02:39:10;;;;;;;5.85;2.83;;;;;;;-0.13;100.00;102814.78;6253143;28;20041;-78
2021/04/14 02:42:11;;;;;;;11.40;2.90;;;;;;;-0.19;100.00;102814.63;6252754;28;20196;-79
2021/04/14 02:45:14;;;;;;;8.20;3.20;;;;;;;-0.22;100.00;102811.97;6252204;28;20049;-79
2021/04/14 02:48:16;;;;;;;7.95;3.10;;;;;;;-0.21;100.00;102808.56;6252287;28;20054;-79
2021/04/14 02:51:17;;;;;;;7.35;2.72;;;;;;;-0.24;100.00;102808.47;6252780;28;20048;-79
2021/04/14 02:54:20;;;;;;;14.98;3.92;;;;;;;-0.27;100.00;102804.13;6251870;28;20053;-79
2021/04/14 02:57:21;;;;;;;12.27;2.83;;;;;;;-0.19;100.00;102804.28;6253016;28;20049;-79
2021/04/14 03:00:23;;;;;;;6.97;3.30;;;;;;;-0.16;100.00;102800.91;6252444;28;20053;-78
2021/04/14 03:03:27;;;;;;;5.13;2.88;;;;;;;-0.14;100.00;102794.94;6251860;28;20092;-78
2021/04/14 03:06:27;;;;;;;8.80;3.15;;;;;;;-0.13;100.00;102795.84;6251365;28;20466;-78
2021/04/14 03:09:30;;;;;;;15.52;3.45;;;;;;;-0.07;100.00;102799.41;6251552;28;20056;-79
2021/04/14 03:12:31;;;;;;;12.18;3.00;;;;;;;-0.08;100.00;102787.34;6250885;28;20056;-79
2021/04/14 03:15:35;;;;;;;5.13;2.70;;;;;;;-0.07;100.00;102791.66;6251401;28;20444;-79
2021/04/14 03:18:36;;;;;;;11.25;3.33;;;;;;;-0.08;100.00;102799.41;6251731;28;20050;-79
2021/04/14 03:21:37;;;;;;;13.13;3.60;;;;;;;-0.10;100.00;102794.16;6251214;28;20045;-79
2021/04/14 03:24:39;;;;;;;9.80;3.17;;;;;;;-0.07;100.00;102790.81;6251156;28;20057;-79
2021/04/14 03:27:40;;;;;;;6.78;3.33;;;;;;;-0.03;100.00;102787.44;6250693;28;20485;-79
2021/04/14 03:30:42;;;;;;;6.82;3.20;;;;;;;-0.03;100.00;102783.16;6251192;28;20049;-78
2021/04/14 03:33:43;;;;;;;10.38;3.60;;;;;;;-0.10;100.00;102795.88;6250764;28;20050;-79
2021/04/14 03:36:43;;;;;;;7.28;2.67;;;;;;;-0.18;100.00;102798.31;6250045;28;20081;-79
2021/04/14 03:39:46;;;;;;;7.03;2.60;;;;;;;-0.31;100.00;102791.09;6250480;28;20128;-79
2021/04/14 03:42:47;;;;;;;6.07;2.70;;;;;;;-0.45;100.00;102797.63;6250966;28;20152;-79
2021/04/14 03:45:52;;;;;;;7.07;2.97;;;;;;;-0.59;100.00;102795.56;6250456;28;20081;-79
2021/04/14 03:48:53;;;;;;;5.95;3.03;;;;;;;-0.61;100.00;102786.91;6251263;28;20050;-79
2021/04/14 03:51:54;;;;;;;7.20;2.78;;;;;;;-0.68;100.00;102807.34;6250584;28;20100;-79
2021/04/14 03:54:56;;;;;;;8.27;2.72;;;;;;;-0.65;100.00;102800.56;6249897;28;20052;-79
2021/04/14 03:57:56;;;;;;;9.00;3.15;;;;;;;-0.59;100.00;102802.41;6277683;23;20400;-74
2021/04/14 04:00:59;;;;;;;8.55;3.33;;;;;;;-0.65;100.00;102794.53;6273868;28;20051;-75
2021/04/14 04:04:00;;;;;;;6.35;3.38;;;;;;;-0.67;100.00;102798.78;6251761;28;20428;-74
2021/04/14 04:07:01;;;;;;;10.23;3.45;;;;;;;-0.67;100.00;102796.22;6248970;28;20057;-74
2021/04/14 04:10:04;;;;;;;11.52;3.47;;;;;;;-0.68;100.00;102797.91;6248868;28;20057;-75
2021/04/14 04:13:07;;;;;;;8.35;3.28;;;;;;;-0.73;100.00;102803.78;6248932;28;20053;-74
2021/04/14 04:16:08;;;;;;;9.32;3.67;;;;;;;-0.74;100.00;102809.78;6248758;28;20045;-74
2021/04/14 04:19:09;;;;;;;10.68;3.85;;;;;;;-0.63;100.00;102808.38;6248819;28;20049;-74
2021/04/14 04:22:13;;;;;;;9.63;4.15;;;;;;;-0.55;100.00;102810.28;6248574;28;20103;-75
2021/04/14 04:25:15;;;;;;;15.02;4.35;;;;;;;-0.48;100.00;102808.75;6248504;28;20049;-75
2021/04/14 04:28:15;;;;;;;6.90;3.78;;;;;;;-0.44;100.00;102814.88;6248311;28;20050;-74
2021/04/14 04:31:16;;;;;;;8.15;4.03;;;;;;;-0.42;100.00;102820.94;6248689;28;20423;-74
2021/04/14 04:34:17;;;;;;;15.95;3.92;;;;;;;-0.42;100.00;102814.06;6248539;28;20145;-75
2021/04/14 04:37:18;;;;;;;11.23;4.30;;;;;;;-0.42;100.00;102826.97;6248026;28;20127;-74
2021/04/14 04:40:21;;;;;;;9.20;4.13;;;;;;;-0.42;100.00;102826.97;6248458;28;20050;-74
2021/04/14 04:43:23;;;;;;;13.43;4.32;;;;;;;-0.39;100.00;102829.63;6247764;28;20053;-74
2021/04/14 04:46:24;;;;;;;12.93;3.97;;;;;;;-0.39;100.00;102829.63;6248380;28;20088;-74
2021/04/14 04:49:25;;;;;;;8.55;4.00;;;;;;;-0.44;100.00;102835.53;6248400;28;20046;-74
2021/04/14 04:52:26;;;;;;;11.90;4.30;;;;;;;-0.49;100.00;102840.56;6248070;28;20084;-74
2021/04/14 04:55:28;;;;;;;10.45;3.75;;;;;;;-0.51;100.00;102832.78;6247733;28;20053;-74
2021/04/14 04:58:29;;;;;;;9.85;4.07;;;;;;;-0.45;100.00;102839.81;6247806;28;20107;-74
2021/04/14 05:01:30;;;;;;;14.25;4.95;;;;;;;-0.43;100.00;102835.56;6248061;28;20395;-74
2021/04/14 05:04:31;;;;;;;10.23;4.43;;;;;;;-0.34;100.00;102829.75;6247475;28;20053;-74
2021/04/14 05:07:32;;;;;;;7.25;4.30;;;;;;;-0.30;100.00;102827.28;6247694;28;20057;-74
2021/04/14 05:10:34;;;;;;;12.82;4.65;;;;;;;-0.19;100.00;102834.41;6247755;28;20053;-74
2021/04/14 05:13:35;;;;;;;8.50;4.40;;;;;;;-0.20;100.00;102830.97;6247345;28;20046;-74
2021/04/14 05:16:36;;;;;;;9.68;4.50;;;;;;;-0.21;100.00;102831.81;6247497;28;20050;-74
2021/04/14 05:19:37;;;;;;;10.32;4.68;;;;;;;-0.12;100.00;102832.03;6247426;28;20425;-74
2021/04/14 05:22:38;;;;;;;14.65;4.88;;;;;;;-0.08;100.00;102839.03;6247401;28;20084;-74
2021/04/14 05:25:45;;;;;;;12.57;5.13;;;;;;;0.02;100.00;102839.25;6247273;28;20049;-74
2021/04/14 05:28:46;;;;;;;15.35;4.97;;;;;;;0.12;100.00;102844.66;6248629;28;20132;-74
2021/04/14 05:31:47;;;;;;;12.88;4.55;;;;;;;0.18;100.00;102837.06;6248475;28;20085;-74
2021/04/14 05:34:48;;;;;;;11.00;4.35;;;;;;;0.20;100.00;102847.44;6248036;28;20406;-74
2021/04/14 05:37:49;;;;;;;11.43;4.35;;;;;;;0.23;100.00;102843.22;6247862;28;20124;-74
2021/04/14 05:40:51;;;;;;;7.82;4.07;;;;;;;0.24;100.00;102855.28;6247884;28;20077;-74
2021/04/14 05:43:52;;;;;;;19.67;4.32;;;;;;;0.33;100.00;102856.34;6247128;28;20053;-75
2021/04/14 05:46:53;;;;;;;9.90;3.88;;;;;;;0.45;100.00;102866.97;6247687;28;20049;-75
2021/04/14 05:49:54;;;;;;;16.17;4.43;;;;;;;0.48;100.00;102860.16;6247406;28;20056;-74
2021/04/14 05:52:55;;;;;;;11.93;4.53;;;;;;;0.51;100.00;102864.53;6247091;28;20053;-74
2021/04/14 05:55:56;;;;;;;13.73;5.25;;;;;;;0.52;100.00;102860.22;6247046;28;20060;-74
2021/04/14 05:58:58;;;;;;;13.20;5.13;;;;;;;0.59;100.00;102869.84;6246511;28;20048;-74
2021/04/14 06:01:59;;;;;;;10.68;4.25;;;;;;;0.70;100.00;102873.56;6246848;28;20052;-74
2021/04/14 06:04:59;;;;;;;15.02;5.05;;;;;;;0.74;100.00;102875.38;6246778;28;20265;-74
2021/04/14 06:08:00;;;;;;;10.88;3.78;;;;;;;0.82;100.00;102878.09;6246657;28;20512;-74
2021/04/14 06:11:03;;;;;;;12.25;4.20;;;;;;;0.83;100.00;102879.88;6246725;28;20075;-74
2021/04/14 06:14:04;;;;;;;6.82;3.72;;;;;;;0.83;100.00;102875.56;6246475;28;20059;-74
2021/04/14 06:17:05;;;;;;;15.93;5.30;;;;;;;0.97;100.00;102866.38;6246400;28;20045;-74
2021/04/14 06:20:08;;;;;;;7.60;3.70;;;;;;;1.05;100.00;102874.31;6246581;28;20080;-74
2021/04/14 06:23:12;;;;;;;9.00;3.38;;;;;;;0.95;100.00;102872.34;6246165;28;20057;-74
2021/04/14 06:26:17;;;;;;;13.88;4.88;;;;;;;1.05;100.00;102876.03;6246612;28;20054;-74
2021/04/14 06:29:18;;;;;;;16.83;3.50;;;;;;;1.13;100.00;102877.91;6238764;28;20041;-74
2021/04/14 06:32:19;;;;;;;9.35;4.18;;;;;;;1.57;100.00;102874.41;6232395;28;20046;-75
2021/04/14 06:35:22;;;;;;;7.38;3.35;;;;;;;1.39;100.00;102873.22;6232632;28;20041;-75
2021/04/14 06:38:26;;;;;;;8.13;3.47;;;;;;;1.60;100.00;102871.91;6232657;28;20069;-74
2021/04/14 06:41:54;;;;;;;11.45;3.20;;;;;;;1.68;98.92;102876.38;6231992;28;20073;-75
2021/04/14 06:45:04;;;;;;;11.15;3.25;;;;;;;1.88;98.47;102881.88;6233667;28;20049;-74
2021/04/14 06:48:28;;;;;;;11.57;3.75;;;;;;;1.91;97.62;102871.59;6232609;28;20425;-74
2021/04/14 06:51:36;;;;;;;19.35;5.43;;;;;;;1.91;99.14;102869.00;6220022;28;20570;-74
2021/04/14 06:54:44;;;;;;;13.77;4.53;;;;;;;1.86;99.95;102864.56;6219673;28;20072;-74
2021/04/14 06:57:54;;;;;;;12.13;3.95;;;;;;;1.86;100.00;102867.16;6227747;28;20045;-74
2021/04/14 07:01:00;;;;;;;7.55;3.60;;;;;;;1.90;100.00;102863.75;6232695;28;20046;-74
2021/04/14 07:04:07;;;;;;;15.10;3.67;;;;;;;2.17;100.00;102868.50;6228301;28;20054;-74
2021/04/14 07:07:12;;;;;;;11.77;2.97;;;;;;;2.32;98.68;102857.50;6232397;28;20037;-74
2021/04/14 07:10:23;;;;;;;17.83;3.05;;;;;;;2.37;98.76;102864.53;6231224;28;20050;-75
2021/04/14 07:13:29;;;;;;;7.55;2.30;;;;;;;2.77;95.80;102863.34;6235223;28;20056;-74
2021/04/14 07:16:43;;;;;;;9.07;2.17;;;;;;;2.63;96.43;102866.59;6237958;28;20068;-74
2021/04/14 07:20:01;;;;;;;8.40;2.53;;;;;;;2.90;95.13;102863.47;6234689;28;20048;-75
2021/04/14 07:23:11;;;;;;;10.55;1.95;;;;;;;3.15;94.81;102867.25;6233480;28;20049;-74
2021/04/14 07:26:20;;;;;;;9.68;3.38;;;;;;;3.63;90.15;102866.03;6237632;28;20048;-74
2021/04/14 07:29:32;;;;;;;12.75;2.25;;;;;;;3.53;91.98;102863.34;6250028;28;20046;-74
2021/04/14 07:32:38;;;;;;;11.95;1.98;;;;;;;3.68;91.37;102860.03;6249410;28;20494;-73
2021/04/14 07:35:48;;;;;;;13.65;2.25;;;;;;;3.65;91.31;102862.59;6249395;28;20054;-74
2021/04/14 07:38:57;;;;;;;15.75;2.58;;;;;;;3.72;90.00;102864.38;6242986;28;20657;-74
2021/04/14 07:42:03;;;;;;;;;;;;;;;3.67;90.32;102854.78;6237445;28;20046;-76
2021/04/14 07:45:18;;;;;;;8.80;2.33;;;;;;;3.83;89.41;102843.69;6234945;28;19928;-74
2021/04/14 07:48:24;;;;;;;7.18;2.40;;;;;;;3.69;90.91;102851.38;6229846;28;20041;-75
2021/04/14 07:51:28;;;;;;;18.15;2.35;;;;;;;3.64;91.75;102852.19;6249644;28;20064;-74
2021/04/14 07:54:39;;;;;;;6.15;1.92;;;;;;;3.68;92.63;102847.03;6249500;28;20049;-74
2021/04/14 07:57:40;;;;;;;13.80;1.70;;;;;;;4.12;90.14;102851.69;6235291;28;20046;-74
2021/04/14 08:00:43;;;;;;;6.47;1.90;;;;;;;4.32;88.66;102849.25;6224560;28;20096;-76
2021/04/14 08:03:45;;;;;;;10.32;1.90;;;;;;;4.44;86.73;102851.91;6224108;28;20046;-75
2021/04/14 08:06:46;;;;;;;7.47;2.13;;;;;;;4.32;88.58;102844.91;6236612;28;20056;-74
2021/04/14 08:09:49;;;;;;;15.65;2.30;;;;;;;4.46;88.30;102846.75;6234424;28;20050;-75
2021/04/14 08:12:58;;;;;;;9.52;1.92;;;;;;;4.71;85.79;102845.97;6235219;28;20045;-75
2021/04/14 08:16:10;;;;;;;8.07;2.10;;;;;;;4.85;83.73;102843.44;6235837;28;20042;-76
2021/04/14 08:19:21;;;;;;;6.15;1.98;;;;;;;4.84;83.33;102844.31;6222382;28;20046;-73
2021/04/14 08:22:25;;;;;;;9.85;2.33;;;;;;;4.96;84.51;102833.09;6236429;28;20064;-75
2021/04/14 08:25:30;;;;;;;18.88;2.50;;;;;;;5.03;85.35;102840.91;6222237;28;20041;-73
2021/04/14 08:28:40;;;;;;;8.05;2.42;;;;;;;5.32;82.41;102835.78;6231405;28;20054;-74
2021/04/14 08:31:46;;;;;;;12.93;2.10;;;;;;;5.04;82.54;102836.56;6223847;28;20513;-75
2021/04/14 08:34:55;;;;;;;12.55;1.67;;;;;;;5.18;81.72;102831.38;6223726;28;20085;-76
2021/04/14 08:38:05;;;;;;;7.05;1.85;;;;;;;5.16;80.55;102839.22;6234786;28;20041;-76
2021/04/14 08:41:18;;;;;;;11.65;1.70;;;;;;;4.90;81.54;102828.69;6236705;28;20045;-75
2021/04/14 08:44:31;;;;;;;10.35;1.92;;;;;;;5.00;80.30;102845.25;6239492;28;20100;-75
2021/04/14 08:47:35;;;;;;;8.10;1.88;;;;;;;4.66;81.19;102844.22;6247950;28;20046;-75
2021/04/14 08:50:40;;;;;;;10.38;2.28;;;;;;;4.57;81.30;102843.31;6241268;28;20049;-75
2021/04/14 08:53:44;;;;;;;13.27;1.98;;;;;;;4.44;84.21;102841.50;6241245;28;20052;-75
2021/04/14 08:56:45;;;;;;;12.77;1.95;;;;;;;4.58;81.73;102831.16;6247720;28;20050;-75
2021/04/14 08:59:46;;;;;;;7.88;2.20;;;;;;;4.41;83.07;102838.91;6247769;28;20058;-75
2021/04/14 09:02:50;;;;;;;11.27;2.10;;;;;;;4.42;82.84;102830.22;6247692;28;20053;-75
2021/04/14 09:05:52;;;;;;;10.40;2.00;;;;;;;4.67;82.86;102828.59;6247869;28;20080;-75
2021/04/14 09:08:54;;;;;;;15.70;2.30;;;;;;;4.77;80.86;102827.81;6233547;28;20046;-75
2021/04/14 09:12:02;;;;;;;9.25;2.10;;;;;;;4.92;80.38;102824.38;6233588;28;20054;-76
2021/04/14 09:15:04;;;;;;;6.55;2.35;;;;;;;4.89;81.77;102820.88;6234742;28;20124;-73
2021/04/14 09:18:06;;;;;;;12.93;3.08;;;;;;;5.13;77.14;102825.28;6233535;28;20103;-74
2021/04/14 09:21:11;;;;;;;7.55;2.00;;;;;;;4.96;77.43;102809.63;6233255;28;20099;-75
2021/04/14 09:24:35;;;;;;;16.08;2.38;;;;;;;5.23;75.65;102814.91;6234003;28;20042;-74
2021/04/14 09:27:47;;;;;;;10.60;2.03;;;;;;;5.02;80.00;102804.44;6233530;28;20049;-76
2021/04/14 09:30:51;;;;;;;8.00;2.90;;;;;;;5.19;75.95;102805.34;6234360;28;20092;-74
2021/04/14 09:33:55;;;;;;;10.38;1.75;;;;;;;5.29;75.08;102804.50;6227337;28;20403;-72
2021/04/14 09:37:01;;;;;;;4.63;1.40;;;;;;;5.28;72.64;102805.38;6222420;28;20506;-73
2021/04/14 09:40:05;;;;;;;5.95;1.60;;;;;;;5.36;75.91;102810.59;6222840;28;20136;-72
2021/04/14 09:43:30;;;;;;;6.93;1.20;;;;;;;5.48;71.27;102800.16;6221720;28;20108;-74
2021/04/14 09:46:34;;;;;;;5.88;1.17;;;;;;;5.84;66.85;102808.88;6221339;28;20108;-75
2021/04/14 09:49:38;;;;;;;15.18;1.60;;;;;;;5.76;69.02;102803.66;6221441;28;20054;-72
2021/04/14 09:52:50;;;;;;;7.28;1.40;;;;;;;5.64;68.26;102805.41;6219057;28;20494;-72
2021/04/14 09:55:56;;;;;;;5.65;1.00;;;;;;;5.35;68.40;102799.28;6221015;28;20068;-73
2021/04/14 09:59:02;;;;;;;10.35;1.42;;;;;;;5.46;68.23;102803.66;6221592;28;20049;-73
2021/04/14 10:02:08;;;;;;;15.75;2.83;;;;;;;5.65;66.80;102794.97;6222235;28;20461;-74
2021/04/14 10:05:11;;;;;;;4.82;1.63;;;;;;;6.02;64.77;102792.38;6221297;28;20053;-74
2021/04/14 10:08:15;;;;;;;9.80;1.65;;;;;;;6.19;64.75;102792.34;6221998;28;20054;-73
2021/04/14 10:11:25;;;;;;;8.85;1.45;;;;;;;6.46;63.63;102779.19;6221904;28;20108;-73
2021/04/14 10:14:27;;;;;;;5.20;1.10;;;;;;;6.52;62.03;102775.69;6221418;28;20096;-73
2021/04/14 10:17:30;;;;;;;10.13;1.15;;;;;;;6.50;62.67;102772.22;6221545;28;20099;-73
2021/04/14 10:20:35;;;;;;;9.23;1.30;;;;;;;6.71;61.47;102779.97;6222071;28;20517;-73
2021/04/14 10:23:38;;;;;;;2.92;0.88;;;;;;;6.99;58.05;102780.69;6221534;28;20050;-74
2021/04/14 10:26:47;;;;;;;7.20;1.20;;;;;;;6.80;59.38;102774.69;6253371;23;20056;-80
2021/04/14 10:29:48;;;;;;;5.70;1.00;;;;;;;6.80;60.87;102771.22;6274634;28;20052;-78
2021/04/14 10:32:51;;;;;;;6.40;0.90;;;;;;;6.74;59.75;102771.25;6271131;28;20045;-81
2021/04/14 10:35:53;;;;;;;3.83;0.88;;;;;;;6.91;56.36;102771.16;6256574;28;20483;-81
2021/04/14 10:38:54;;;;;;;7.43;0.95;;;;;;;6.90;56.46;102758.94;6226770;28;20050;-82
2021/04/14 10:41:55;;;;;;;7.57;1.20;;;;;;;6.94;57.99;102758.94;6224983;28;20068;-82
2021/04/14 10:45:06;;;;;;;7.32;0.88;;;;;;;6.77;57.46;102752.97;6224118;28;20080;-80
2021/04/14 10:48:07;;;;;;;5.50;1.17;;;;;;;7.08;58.90;102744.03;6234303;28;20053;-80
2021/04/14 10:51:18;;;;;;;2.15;0.98;;;;;;;7.46;56.70;102742.03;6231631;28;20050;-83
2021/04/14 10:54:24;;;;;;;6.47;1.00;;;;;;;7.51;54.76;102735.00;6228228;28;20061;-83
2021/04/14 10:57:29;;;;;;;5.85;0.90;;;;;;;7.35;53.46;102735.09;6227414;28;20158;-81
2021/04/14 11:00:33;;;;;;;10.05;1.40;;;;;;;7.24;53.72;102750.03;6228846;28;20417;-81
2021/04/14 11:03:35;;;;;;;4.57;1.13;;;;;;;6.67;64.92;102775.63;6227814;28;20050;-81
2021/04/14 11:06:37;;;;;;;1.58;0.70;;;;;;;6.44;67.93;102774.84;6231483;28;20046;-80
2021/04/14 11:09:40;;;;;;;1.58;0.50;;;;;;;5.76;70.39;102779.31;6231975;28;20073;-78
2021/04/14 11:12:44;;;;;;;3.50;0.85;;;;;;;5.57;72.67;102781.91;6228897;28;20053;-81
2021/04/14 11:15:48;;;;;;;8.35;0.82;;;;;;;5.54;73.25;102781.94;6227540;28;20121;-80
2021/04/14 11:18:48;;;;;;;9.50;1.05;;;;;;;5.72;72.24;102791.50;6230200;28;20046;-79
2021/04/14 11:22:01;;;;;;;3.80;0.50;;;;;;;5.46;73.46;102786.28;6232738;28;20050;-79
2021/04/14 11:25:03;;;;;;;2.03;0.68;;;;;;;5.57;73.18;102781.91;6230307;28;20795;-81
2021/04/14 11:28:06;;;;;;;3.38;0.98;;;;;;;6.00;72.45;102787.16;6232359;28;20069;-79
2021/04/14 11:31:07;;;;;;;5.30;1.00;;;;;;;6.72;71.74;102786.03;6230479;28;20057;-81
2021/04/14 11:34:14;;;;;;;2.53;0.63;;;;;;;6.98;68.50;102783.31;6227490;28;20050;-81
2021/04/14 11:37:29;;;;;;;2.20;0.70;;;;;;;7.08;68.07;102791.09;6238381;28;20056;-82
2021/04/14 11:40:38;;;;;;;1.77;0.73;;;;;;;6.70;72.97;102782.59;6251103;28;20045;-84
2021/04/14 11:43:39;;;;;;;3.63;1.00;;;;;;;6.87;72.17;102783.38;6250231;28;20056;-83
2021/04/14 11:46:41;;;;;;;3.05;0.65;;;;;;;7.11;71.64;102788.47;6251550;28;20050;-83
2021/04/14 11:49:42;;;;;;;1.80;0.35;;;;;;;7.18;69.43;102772.75;6253395;28;20049;-78
2021/04/14 11:52:50;;;;;;;4.82;0.75;;;;;;;6.74;70.84;102772.13;6258427;28;20081;-83
2021/04/14 11:55:51;;;;;;;2.53;0.57;;;;;;;6.77;71.94;102773.84;6245174;28;20046;-82
2021/04/14 11:58:54;;;;;;;6.70;0.65;;;;;;;7.29;67.45;102768.31;6240334;28;20049;-84
2021/04/14 12:01:59;;;;;;;2.60;0.80;;;;;;;7.42;69.89;102763.84;6242495;28;20128;-84
2021/04/14 12:05:02;;;;;;;4.45;0.90;;;;;;;7.27;68.31;102759.63;6236436;28;20048;-81
2021/04/14 12:08:04;;;;;;;5.13;1.00;;;;;;;7.51;70.60;102762.03;6230872;28;20052;-80
2021/04/14 12:11:15;;;;;;;5.57;0.80;;;;;;;7.49;64.63;102761.16;6231769;28;20058;-82
2021/04/14 12:14:16;;;;;;;4.03;1.10;;;;;;;7.50;65.65;102752.44;6226083;28;20046;-81
2021/04/14 12:17:18;;;;;;;4.10;1.23;;;;;;;7.97;66.72;102756.38;6227093;28;20064;-86
2021/04/14 12:20:19;;;;;;;5.38;1.40;;;;;;;8.53;65.13;102748.78;6241373;28;20049;-84
2021/04/14 12:23:21;;;;;;;6.57;1.30;;;;;;;8.75;61.55;102744.13;6256179;28;20053;-84
2021/04/14 12:26:22;;;;;;;7.72;1.23;;;;;;;9.14;60.06;102747.94;6254965;28;20056;-82
2021/04/14 12:29:23;;;;;;;4.65;0.73;;;;;;;9.28;64.26;102737.22;6258073;28;20045;-83
2021/04/14 12:32:23;;;;;;;3.05;1.00;;;;;;;9.22;63.73;102747.81;6231481;28;20648;-83
2021/04/14 12:35:26;;;;;;;5.03;1.23;;;;;;;9.24;63.72;102744.28;6228678;28;20050;-83
2021/04/14 12:38:28;;;;;;;6.50;1.52;;;;;;;9.41;58.32;102723.03;6231382;28;20060;-83
2021/04/14 12:41:29;;;;;;;6.07;1.50;;;;;;;9.13;63.16;102731.34;6227727;28;20057;-83
2021/04/14 12:44:30;;;;;;;6.13;1.13;;;;;;;9.52;59.42;102722.84;6233732;28;20567;-83
2021/04/14 12:47:30;;;;;;;5.80;1.10;;;;;;;9.14;55.60;102726.97;6253700;28;20825;-80
2021/04/14 12:50:31;;;;;;;4.93;1.27;;;;;;;8.74;59.11;102730.16;6255356;28;20507;-81
2021/04/14 12:53:38;;;;;;;5.00;0.98;;;;;;;8.65;57.98;102719.78;6256872;28;20053;-81
2021/04/14 12:56:42;;;;;;;5.10;1.30;;;;;;;8.40;61.30;102724.47;6257152;28;20470;-82
2021/04/14 12:59:47;;;;;;;5.15;1.20;;;;;;;8.56;61.77;102718.16;6251502;28;20041;-83
2021/04/14 13:02:52;;;;;;;7.95;1.00;;;;;;;8.50;64.74;102715.63;6253842;28;20095;-83
2021/04/14 13:05:59;;;;;;;6.07;2.05;;;;;;;8.64;58.27;102718.94;6250954;28;20480;-81
2021/04/14 13:09:02;;;;;;;2.70;0.52;;;;;;;7.82;59.32;102727.75;6253671;28;20050;-82
2021/04/14 13:12:10;;;;;;;6.50;0.70;;;;;;;7.34;61.01;102722.06;6249455;28;20104;-80
2021/04/14 13:15:14;;;;;;;2.72;0.50;;;;;;;8.13;58.64;102717.81;6230460;28;20053;-83
2021/04/14 13:18:16;;;;;;;4.10;0.60;;;;;;;8.66;60.74;102708.41;6225105;28;20053;-83
2021/04/14 13:21:27;;;;;;;1.98;0.85;;;;;;;9.34;54.48;102710.88;6228812;28;20057;-83
2021/04/14 13:24:34;;;;;;;5.20;0.60;;;;;;;9.44;54.74;102701.97;6233388;28;20041;-84
2021/04/14 13:27:43;;;;;;;3.20;0.50;;;;;;;9.94;52.22;102694.91;6243175;28;20096;-84
2021/04/14 13:30:51;;;;;;;2.23;0.50;;;;;;;9.56;48.86;102695.63;6239004;28;20046;-83
2021/04/14 13:33:57;;;;;;;1.80;0.50;;;;;;;9.72;47.44;102688.34;6253221;28;20422;-81
2021/04/14 13:37:05;;;;;;;2.58;0.70;;;;;;;9.71;46.94;102695.34;6254145;28;20072;-81
2021/04/14 13:40:13;;;;;;;6.00;0.63;;;;;;;9.54;50.98;102693.06;6252302;28;20054;-81
2021/04/14 13:43:25;;;;;;;2.60;0.50;;;;;;;9.63;50.00;102678.91;6252073;28;20048;-82
2021/04/14 13:46:30;;;;;;;2.42;0.60;;;;;;;9.80;51.68;102686.44;6239878;28;20052;-82
2021/04/14 13:49:36;;;;;;;1.30;0.40;;;;;;;10.14;48.17;102681.41;6228023;28;20053;-82
2021/04/14 13:52:39;;;;;;;5.55;0.77;;;;;;;9.99;50.70;102686.94;6242020;28;20054;-82
2021/04/14 13:55:42;;;;;;;1.60;0.60;;;;;;;10.13;49.71;102680.53;6227694;28;20042;-84
2021/04/14 13:58:51;;;;;;;1.80;0.90;;;;;;;10.35;48.86;102680.97;6250532;28;20056;-84
2021/04/14 14:02:03;;;;;;;5.15;0.60;;;;;;;10.27;54.69;102682.06;6241247;28;20064;-82
2021/04/14 14:05:09;;;;;;;6.97;1.08;;;;;;;10.37;57.79;102689.69;6233135;28;20092;-83
2021/04/14 14:08:15;;;;;;;1.48;0.70;;;;;;;9.62;56.72;102687.66;6255916;28;20053;-81
2021/04/14 14:11:21;;;;;;;2.08;0.98;;;;;;;8.91;64.46;102687.09;6254713;28;20583;-82
2021/04/14 14:14:22;;;;;;;4.95;1.83;;;;;;;8.33;62.21;102687.00;6255795;28;20052;-81